Terminal Aerodrome Forecast
Issued by NWS

Home | Current Version | Previous Version | Text Only | Print | Product List | Glossary On
Versions: 1 2 3 4 5 6 7 8 9 10 11 12 13
214
FTUS43 KMPX 022330
TAFRWF
TAF
KRWF 022330Z 0300/0324 VRB04KT P6SM SKC
     FM031000 26007KT P6SM SCT250
     FM031500 28013G20KT P6SM SCT070 SCT250
     FM032300 32015G25KT P6SM SKC=

USA.gov is the U.S. government's official web portal to all federal, state and local government web resources and services.